createdAt,value
2018-11-05T00:01:11.020Z,35.50
2018-11-05T00:03:43.472Z,35.60
2018-11-05T00:06:15.891Z,35.63
2018-11-05T00:08:48.317Z,34.87
2018-11-05T00:11:21.145Z,34.93
2018-11-05T00:13:53.676Z,35.80
2018-11-05T00:16:26.232Z,35.93
2018-11-05T00:18:58.689Z,37.90
2018-11-05T00:21:31.167Z,35.50
2018-11-05T00:24:03.850Z,35.93
2018-11-05T00:26:36.290Z,37.37
2018-11-05T00:29:08.753Z,35.57
2018-11-05T00:31:41.244Z,34.87
2018-11-05T00:34:13.852Z,35.67
2018-11-05T00:36:46.405Z,35.07
2018-11-05T00:39:18.820Z,34.67
2018-11-05T00:41:51.178Z,36.10
2018-11-05T00:44:23.577Z,39.50
2018-11-05T00:46:56.146Z,39.37
2018-11-05T00:49:28.602Z,39.13
2018-11-05T00:52:01.117Z,38.10
2018-11-05T00:54:33.613Z,38.27
2018-11-05T00:57:06.241Z,39.53
2018-11-05T00:59:38.679Z,38.93
2018-11-05T01:02:11.600Z,38.60
2018-11-05T01:04:44.080Z,39.00
2018-11-05T01:07:16.462Z,40.07
2018-11-05T01:09:48.955Z,39.47
2018-11-05T01:12:21.853Z,37.53
2018-11-05T01:14:54.321Z,39.90
2018-11-05T01:17:26.731Z,41.17
2018-11-05T01:19:59.156Z,40.50
2018-11-05T01:22:31.638Z,39.87
2018-11-05T01:25:04.223Z,38.87
2018-11-05T01:27:37.067Z,39.33
2018-11-05T01:30:10.807Z,38.50
2018-11-05T01:32:43.246Z,41.40
2018-11-05T01:35:15.673Z,40.57
2018-11-05T01:37:48.534Z,38.47
2018-11-05T01:40:21.510Z,42.30
2018-11-05T01:42:53.936Z,40.00
2018-11-05T01:45:26.428Z,42.23
2018-11-05T01:47:58.882Z,41.20
2018-11-05T01:50:31.347Z,41.07
2018-11-05T01:53:03.889Z,41.43
2018-11-05T01:55:36.332Z,42.53
2018-11-05T01:58:08.780Z,41.53
2018-11-05T02:00:41.270Z,42.80
2018-11-05T02:03:13.703Z,43.20
2018-11-05T02:05:46.112Z,43.40
2018-11-05T02:08:18.549Z,44.13
2018-11-05T02:10:51.271Z,46.30
2018-11-05T02:13:23.737Z,42.70
2018-11-05T02:15:56.253Z,44.67
2018-11-05T02:18:28.704Z,42.47
2018-11-05T02:21:01.116Z,42.40
2018-11-05T02:23:33.567Z,43.30
2018-11-05T02:26:06.045Z,42.30
2018-11-05T02:28:38.492Z,44.97
2018-11-05T02:31:10.945Z,44.50
2018-11-05T02:33:43.371Z,42.97
2018-11-05T02:36:16.089Z,43.73
2018-11-05T02:38:48.536Z,45.30
2018-11-05T02:41:20.989Z,44.33
2018-11-05T02:43:53.410Z,43.53
2018-11-05T02:46:25.874Z,42.97
2018-11-05T02:48:58.260Z,43.33
2018-11-05T02:51:30.683Z,44.60
2018-11-05T02:54:03.131Z,43.17
2018-11-05T02:56:35.554Z,41.60
2018-11-05T02:59:08.076Z,44.63
2018-11-05T03:01:40.487Z,42.00
2018-11-05T03:04:13.309Z,42.33
2018-11-05T03:06:45.734Z,43.90
2018-11-05T03:09:18.468Z,42.93
2018-11-05T03:11:50.965Z,44.83
2018-11-05T03:14:23.698Z,45.13
2018-11-05T03:16:56.096Z,45.27
2018-11-05T03:19:28.765Z,42.93
2018-11-05T03:22:01.215Z,43.27
2018-11-05T03:24:33.717Z,43.13
2018-11-05T03:27:06.153Z,43.10
2018-11-05T03:29:38.596Z,41.90
2018-11-05T03:32:11.081Z,43.70
2018-11-05T03:34:43.557Z,46.33
2018-11-05T03:37:16.031Z,43.23
2018-11-05T03:39:48.581Z,42.83
2018-11-05T03:42:21.029Z,44.03
2018-11-05T03:44:53.478Z,43.60
2018-11-05T03:47:25.904Z,43.23
2018-11-05T03:49:58.425Z,43.67
2018-11-05T03:52:30.878Z,41.43
2018-11-05T03:55:03.610Z,41.80
2018-11-05T03:57:36.046Z,40.70
2018-11-05T04:00:10.141Z,41.20
2018-11-05T04:02:42.698Z,42.27
2018-11-05T04:05:15.125Z,42.27
2018-11-05T04:07:47.629Z,40.47
2018-11-05T04:10:20.160Z,40.80
2018-11-05T04:12:52.636Z,42.53
2018-11-05T04:15:25.146Z,41.90
2018-11-05T04:17:57.632Z,42.30
2018-11-05T04:20:30.160Z,41.37
2018-11-05T04:23:02.638Z,42.77
2018-11-05T04:25:35.114Z,41.47
2018-11-05T04:28:07.609Z,41.70
2018-11-05T04:30:40.055Z,40.33
2018-11-05T04:33:12.493Z,40.70
2018-11-05T04:35:44.958Z,40.73
2018-11-05T04:38:17.636Z,40.30
2018-11-05T04:40:50.167Z,41.37
2018-11-05T04:43:22.625Z,39.77
2018-11-05T04:48:22.358Z,39.53
2018-11-05T04:50:54.762Z,38.40
2018-11-05T04:53:27.205Z,38.13
2018-11-05T04:55:59.687Z,36.33
2018-11-05T04:58:32.189Z,39.03
2018-11-05T05:01:04.690Z,37.03
2018-11-05T05:03:37.182Z,40.77
2018-11-05T05:06:09.684Z,39.97
2018-11-05T05:08:42.135Z,40.10
2018-11-05T05:11:14.564Z,38.83
2018-11-05T05:13:47.111Z,39.37
2018-11-05T05:16:19.568Z,37.93
2018-11-05T05:18:52.031Z,40.10
2018-11-05T05:21:24.510Z,39.23
2018-11-05T05:23:56.964Z,38.77
2018-11-05T05:26:29.406Z,39.37
2018-11-05T05:29:07.645Z,39.13
2018-11-05T05:31:40.064Z,39.43
2018-11-05T05:34:12.530Z,38.50
2018-11-05T05:36:45.313Z,41.37
2018-11-05T05:39:17.741Z,40.70
2018-11-05T05:41:50.209Z,39.33
2018-11-05T05:44:22.630Z,39.13
2018-11-05T05:46:56.057Z,41.87
2018-11-05T05:49:28.530Z,39.10
2018-11-05T05:52:01.006Z,39.17
2018-11-05T05:54:33.426Z,38.50
2018-11-05T05:57:05.901Z,40.10
2018-11-05T05:59:38.544Z,40.97
2018-11-05T06:02:10.934Z,39.80
2018-11-05T06:04:43.632Z,38.03
2018-11-05T06:07:16.336Z,39.67
2018-11-05T06:09:48.827Z,40.00
2018-11-05T06:12:21.230Z,39.37
2018-11-05T06:14:53.881Z,39.60
2018-11-05T06:17:26.340Z,39.20
2018-11-05T06:19:58.831Z,38.77
2018-11-05T06:22:31.408Z,37.97
2018-11-05T06:25:04.500Z,38.77
2018-11-05T06:27:37.541Z,38.93
2018-11-05T06:30:12.539Z,38.53
2018-11-05T06:32:45.888Z,39.33
2018-11-05T06:35:18.921Z,37.70
2018-11-05T06:37:51.303Z,36.87
2018-11-05T06:40:24.290Z,39.07
2018-11-05T06:42:56.706Z,38.67
2018-11-05T06:45:29.497Z,36.77
2018-11-05T06:48:02.216Z,35.80
2018-11-05T06:50:34.803Z,36.20
2018-11-05T06:53:07.314Z,37.30
2018-11-05T06:55:39.820Z,37.57
2018-11-05T06:58:12.301Z,35.90
2018-11-05T07:00:45.358Z,35.37
2018-11-05T07:03:17.782Z,36.63
2018-11-05T07:05:50.481Z,35.77
2018-11-05T07:08:22.972Z,35.93
2018-11-05T07:10:55.525Z,37.97
2018-11-05T07:13:27.993Z,35.67
2018-11-05T07:16:00.503Z,35.83
2018-11-05T07:18:33.085Z,37.07
2018-11-05T07:21:05.741Z,35.80
2018-11-05T07:23:38.168Z,35.23
2018-11-05T07:26:10.982Z,35.13
2018-11-05T07:28:43.548Z,36.03
2018-11-05T07:31:16.132Z,36.50
2018-11-05T07:33:48.793Z,36.27
2018-11-05T07:36:21.230Z,36.53
2018-11-05T07:38:53.898Z,35.60
2018-11-05T07:41:26.462Z,36.27
2018-11-05T07:44:29.838Z,37.13
2018-11-05T07:47:02.353Z,35.13
2018-11-05T07:49:34.844Z,34.53
2018-11-05T07:52:07.272Z,37.87
2018-11-05T07:54:39.919Z,36.30
2018-11-05T07:57:12.438Z,36.40
2018-11-05T07:59:45.058Z,34.70
2018-11-05T08:02:17.744Z,34.27
2018-11-05T08:04:50.234Z,35.97
2018-11-05T08:07:22.734Z,34.77
2018-11-05T08:09:55.285Z,34.93
2018-11-05T08:12:27.825Z,36.20
2018-11-05T08:15:00.345Z,35.40
2018-11-05T08:17:32.877Z,34.47
2018-11-05T08:20:05.819Z,35.57
2018-11-05T08:22:38.347Z,35.57
2018-11-05T08:25:11.553Z,33.70
2018-11-05T08:27:44.158Z,35.57
2018-11-05T08:30:21.169Z,35.40
2018-11-05T08:32:54.293Z,34.57
2018-11-05T08:35:26.678Z,35.17
2018-11-05T08:38:00.117Z,34.27
2018-11-05T08:40:32.675Z,33.73
2018-11-05T08:43:06.459Z,33.20
2018-11-05T08:45:38.994Z,34.73
2018-11-05T08:48:11.472Z,34.60
2018-11-05T08:50:44.163Z,33.70
2018-11-05T08:53:16.695Z,36.40
2018-11-05T08:55:49.366Z,36.23
2018-11-05T08:58:21.998Z,35.07
2018-11-05T09:00:55.788Z,33.70
2018-11-05T09:03:28.491Z,37.00
2018-11-05T09:06:03.627Z,33.07
2018-11-05T09:08:36.447Z,34.07
2018-11-05T09:11:09.362Z,34.20
2018-11-05T09:13:41.907Z,35.57
2018-11-05T09:16:14.465Z,35.77
2018-11-05T09:18:46.954Z,37.90
2018-11-05T09:21:19.523Z,36.03
2018-11-05T09:23:51.940Z,39.03
2018-11-05T09:26:24.441Z,35.80
2018-11-05T09:28:57.008Z,41.90
2018-11-05T09:31:29.478Z,36.50
2018-11-05T09:34:02.144Z,40.20
2018-11-05T09:36:34.752Z,42.30
2018-11-05T09:39:07.956Z,40.20
2018-11-05T09:41:40.528Z,44.27
2018-11-05T09:44:13.006Z,38.00
2018-11-05T09:46:45.460Z,41.87
2018-11-05T09:49:17.902Z,35.67
2018-11-05T09:51:50.374Z,35.33
2018-11-05T09:54:22.833Z,36.60
2018-11-05T09:56:55.287Z,35.53
2018-11-05T09:59:27.794Z,37.17
2018-11-05T10:02:00.438Z,35.73
2018-11-05T10:04:33.253Z,37.47
2018-11-05T10:07:05.676Z,35.63
2018-11-05T10:09:38.218Z,34.80
2018-11-05T10:12:10.711Z,35.80
2018-11-05T10:14:43.464Z,33.47
2018-11-05T10:17:15.922Z,34.50
2018-11-05T10:19:48.391Z,32.23
2018-11-05T10:22:21.192Z,33.93
2018-11-05T10:24:54.171Z,33.47
2018-11-05T10:27:26.554Z,32.80
2018-11-05T10:29:59.040Z,32.53
2018-11-05T10:32:31.908Z,32.63
2018-11-05T10:35:04.647Z,32.73
2018-11-05T10:37:37.321Z,33.50
2018-11-05T10:40:14.843Z,33.10
2018-11-05T10:42:48.011Z,35.60
2018-11-05T10:45:20.623Z,39.40
2018-11-05T10:47:53.039Z,36.90
2018-11-05T10:50:25.682Z,34.03
2018-11-05T10:52:58.097Z,30.97
2018-11-05T10:55:30.737Z,33.00
2018-11-05T10:58:03.378Z,32.23
2018-11-05T11:00:41.617Z,31.53
2018-11-05T11:03:16.285Z,31.97
2018-11-05T11:05:48.818Z,37.07
2018-11-05T11:08:21.335Z,37.97
2018-11-05T11:10:53.914Z,38.67
2018-11-05T11:13:26.478Z,35.03
2018-11-05T11:15:59.041Z,34.13
2018-11-05T11:18:31.826Z,34.53
2018-11-05T11:21:05.436Z,34.47
2018-11-05T11:23:38.003Z,33.57
2018-11-05T11:26:10.811Z,33.30
2018-11-05T11:28:43.301Z,31.93
2018-11-05T11:31:15.805Z,34.17
2018-11-05T11:33:48.517Z,34.17
2018-11-05T11:36:21.142Z,34.80
2018-11-05T11:38:53.765Z,33.03
2018-11-05T11:41:26.323Z,42.33
2018-11-05T11:44:00.663Z,34.57
2018-11-05T11:46:33.254Z,32.70
2018-11-05T11:49:06.541Z,32.07
2018-11-05T11:51:39.598Z,32.13
2018-11-05T11:54:12.278Z,32.33
2018-11-05T11:56:44.958Z,34.13
2018-11-05T11:59:17.461Z,33.60
2018-11-05T12:01:55.834Z,30.83
2018-11-05T12:04:28.707Z,32.13
2018-11-05T12:07:01.386Z,32.03
2018-11-05T12:09:33.930Z,31.80
2018-11-05T12:12:08.601Z,32.33
2018-11-05T12:14:41.478Z,32.13
2018-11-05T12:17:14.366Z,30.50
2018-11-05T12:19:46.955Z,30.63
2018-11-05T12:22:19.884Z,32.07
2018-11-05T12:24:52.533Z,31.17
2018-11-05T12:27:25.075Z,31.83
2018-11-05T12:29:57.711Z,31.03
2018-11-05T12:32:30.653Z,31.13
2018-11-05T12:35:03.550Z,31.20
2018-11-05T12:37:36.230Z,30.73
2018-11-05T12:40:11.232Z,30.10
2018-11-05T12:42:44.940Z,30.57
2018-11-05T12:45:17.544Z,30.60
2018-11-05T12:47:50.159Z,31.00
2018-11-05T12:50:23.544Z,29.97
2018-11-05T12:52:56.891Z,31.03
2018-11-05T12:55:29.500Z,29.73
2018-11-05T12:58:02.432Z,31.03
2018-11-05T13:00:35.046Z,31.13
2018-11-05T13:03:07.745Z,31.60
2018-11-05T13:05:40.288Z,30.90
2018-11-05T13:08:12.884Z,31.57
2018-11-05T13:10:45.409Z,31.37
2018-11-05T13:13:18.031Z,30.63
2018-11-05T13:15:51.239Z,29.30
2018-11-05T13:18:23.736Z,28.30
2018-11-05T13:20:56.500Z,30.30
2018-11-05T13:23:35.622Z,31.33
2018-11-05T13:26:08.125Z,30.73
2018-11-05T13:28:41.111Z,30.27
2018-11-05T13:31:13.629Z,30.20
2018-11-05T13:33:58.217Z,30.57
2018-11-05T13:36:32.356Z,34.27
2018-11-05T13:39:06.967Z,36.20
2018-11-05T13:41:39.535Z,33.57
2018-11-05T13:44:11.980Z,33.20
2018-11-05T13:46:45.119Z,32.63
2018-11-05T13:49:17.477Z,33.40
2018-11-05T13:51:50.133Z,32.07
2018-11-05T13:54:23.117Z,30.93
2018-11-05T13:56:55.572Z,32.37
2018-11-05T13:59:28.131Z,33.17
2018-11-05T14:02:00.692Z,32.73
2018-11-05T14:04:33.539Z,31.93
2018-11-05T14:07:06.046Z,33.63
2018-11-05T14:09:38.658Z,32.97
2018-11-05T14:12:11.158Z,31.40
2018-11-05T14:14:43.702Z,30.87
2018-11-05T14:17:16.372Z,29.83
2018-11-05T14:19:48.829Z,31.70
2018-11-05T14:22:21.261Z,30.27
2018-11-05T14:24:53.796Z,29.83
2018-11-05T14:27:26.311Z,30.73
2018-11-05T14:29:59.063Z,30.47
2018-11-05T14:32:31.325Z,30.83
2018-11-05T14:35:04.011Z,31.73
2018-11-05T14:37:36.650Z,30.67
2018-11-05T14:40:11.075Z,33.77
2018-11-05T14:42:44.048Z,31.30
2018-11-05T14:45:18.090Z,30.97
2018-11-05T14:47:51.098Z,31.50
2018-11-05T14:50:23.731Z,30.23
2018-11-05T14:52:56.255Z,32.77
2018-11-05T14:55:29.049Z,32.40
2018-11-05T14:58:01.731Z,32.17
2018-11-05T15:00:34.460Z,31.87
2018-11-05T15:03:07.300Z,31.40
2018-11-05T15:05:39.754Z,33.80
2018-11-05T15:08:12.254Z,33.53
2018-11-05T15:10:44.903Z,31.43
2018-11-05T15:13:17.691Z,33.17
2018-11-05T15:15:50.368Z,33.43
2018-11-05T15:18:23.299Z,32.33
2018-11-05T15:20:55.759Z,33.33
2018-11-05T15:23:28.405Z,31.37
2018-11-05T15:26:01.005Z,32.87
2018-11-05T15:28:33.769Z,31.60
2018-11-05T15:31:06.530Z,32.57
2018-11-05T15:33:39.257Z,33.33
2018-11-05T15:36:11.732Z,31.97
2018-11-05T15:38:45.380Z,33.70
2018-11-05T15:41:18.162Z,69.07
2018-11-05T15:43:50.738Z,83.73
2018-11-05T15:46:23.295Z,79.63
2018-11-05T15:48:55.800Z,50.37
2018-11-05T15:51:29.059Z,43.30
2018-11-05T15:54:01.378Z,46.20
2018-11-05T15:56:35.246Z,36.37
2018-11-05T15:59:08.239Z,41.50
2018-11-05T16:01:40.714Z,38.03
2018-11-05T16:04:13.785Z,37.07
2018-11-05T16:06:46.669Z,36.80
2018-11-05T16:09:19.302Z,38.03
2018-11-05T16:11:51.860Z,37.17
2018-11-05T16:14:24.370Z,36.90
2018-11-05T16:16:57.318Z,35.07
2018-11-05T16:19:30.418Z,35.57
2018-11-05T16:22:03.381Z,36.80
2018-11-05T16:24:36.158Z,37.13
2018-11-05T16:27:09.289Z,35.47
2018-11-05T16:29:42.246Z,36.97
2018-11-05T16:32:15.489Z,35.27
2018-11-05T16:34:50.436Z,33.80
2018-11-05T16:37:22.961Z,31.13
2018-11-05T16:39:55.783Z,33.80
2018-11-05T16:42:28.714Z,31.07
2018-11-05T16:45:01.363Z,33.10
2018-11-05T16:47:34.032Z,30.70
2018-11-05T16:50:10.034Z,36.47
2018-11-05T16:52:42.644Z,78.30
2018-11-05T16:55:15.147Z,44.33
2018-11-05T16:57:47.924Z,36.53
2018-11-05T17:00:20.497Z,34.47
2018-11-05T17:02:53.574Z,45.87
2018-11-05T17:05:26.276Z,41.10
2018-11-05T17:07:58.879Z,52.77
2018-11-05T17:10:31.455Z,43.80
2018-11-05T17:13:04.582Z,35.73
2018-11-05T17:15:37.109Z,37.60
2018-11-05T17:18:10.077Z,37.57
2018-11-05T17:20:42.758Z,34.13
2018-11-05T17:23:15.335Z,30.37
2018-11-05T17:25:47.960Z,28.57
2018-11-05T17:28:20.579Z,28.73
2018-11-05T17:30:53.053Z,28.07
2018-11-05T17:33:26.798Z,28.83
2018-11-05T17:35:59.408Z,29.70
2018-11-05T17:38:31.955Z,30.13
2018-11-05T17:41:06.545Z,33.00
2018-11-05T17:43:39.375Z,35.50
2018-11-05T17:46:11.844Z,32.77
2018-11-05T17:48:44.370Z,35.87
2018-11-05T17:51:17.075Z,44.07
2018-11-05T17:53:49.670Z,32.70
2018-11-05T17:56:22.391Z,33.00
2018-11-05T17:58:54.974Z,35.70
2018-11-05T18:01:27.569Z,27.80
2018-11-05T18:04:00.151Z,29.50
2018-11-05T18:06:32.846Z,28.40
2018-11-05T18:09:07.677Z,29.23
2018-11-05T18:11:40.159Z,28.70
2018-11-05T18:14:12.655Z,26.73
2018-11-05T18:16:45.442Z,28.10
2018-11-05T18:19:17.898Z,27.73
2018-11-05T18:21:50.416Z,27.40
2018-11-05T18:24:22.920Z,26.37
2018-11-05T18:26:55.380Z,26.77
2018-11-05T18:29:28.029Z,26.40
2018-11-05T18:32:00.552Z,27.23
2018-11-05T18:34:33.153Z,28.00
2018-11-05T18:37:05.972Z,27.17
2018-11-05T18:39:38.425Z,26.13
2018-11-05T18:42:11.175Z,25.87
2018-11-05T18:44:43.944Z,27.10
2018-11-05T18:47:16.691Z,26.53
2018-11-05T18:49:49.210Z,26.10
2018-11-05T18:52:21.647Z,25.87
2018-11-05T18:54:54.408Z,24.40
2018-11-05T18:57:26.885Z,26.37
2018-11-05T18:59:59.399Z,27.00
2018-11-05T19:02:33.752Z,26.27
2018-11-05T19:05:06.238Z,25.73
2018-11-05T19:07:38.800Z,24.83
2018-11-05T19:10:11.484Z,25.40
2018-11-05T19:12:44.032Z,25.90
2018-11-05T19:15:16.782Z,26.50
2018-11-05T19:17:50.023Z,26.07
2018-11-05T19:20:22.521Z,24.93
2018-11-05T19:22:55.262Z,25.30
2018-11-05T19:25:27.534Z,22.47
2018-11-05T19:27:59.997Z,23.67
2018-11-05T19:30:32.525Z,23.17
2018-11-05T19:33:05.694Z,23.07
2018-11-05T19:35:38.339Z,22.83
2018-11-05T19:38:10.846Z,22.93
2018-11-05T19:40:43.563Z,22.07
2018-11-05T19:43:16.223Z,22.47
2018-11-05T19:45:48.666Z,21.33
2018-11-05T19:48:21.151Z,21.53
2018-11-05T19:50:53.558Z,22.07
2018-11-05T19:53:26.055Z,23.10
2018-11-05T19:55:58.544Z,22.47
2018-11-05T19:58:31.015Z,21.37
2018-11-05T20:01:03.765Z,21.80
2018-11-05T20:03:36.363Z,20.87
2018-11-05T20:06:09.395Z,20.53
2018-11-05T20:08:42.194Z,20.30
2018-11-05T20:11:14.761Z,22.30
2018-11-05T20:13:47.267Z,22.23
2018-11-05T20:16:19.899Z,20.60
2018-11-05T20:18:52.431Z,21.27
2018-11-05T20:21:24.974Z,19.13
2018-11-05T20:23:57.526Z,19.80
2018-11-05T20:26:30.063Z,20.43
2018-11-05T20:29:02.684Z,20.27
2018-11-05T20:31:35.309Z,19.07
2018-11-05T20:34:08.094Z,19.90
2018-11-05T20:36:40.263Z,20.07
2018-11-05T20:39:12.693Z,20.17
2018-11-05T20:41:45.214Z,19.83
2018-11-05T20:44:17.792Z,19.83
2018-11-05T20:46:50.284Z,19.70
2018-11-05T20:49:22.804Z,19.77
2018-11-05T20:51:55.341Z,18.90
2018-11-05T20:54:27.918Z,19.03
2018-11-05T20:57:01.496Z,18.23
2018-11-05T20:59:34.184Z,19.10
2018-11-05T21:02:06.690Z,20.17
2018-11-05T21:04:39.449Z,18.20
2018-11-05T21:07:11.994Z,19.03
2018-11-05T21:09:44.636Z,17.90
2018-11-05T21:12:17.204Z,19.20
2018-11-05T21:14:51.159Z,17.73
2018-11-05T21:17:24.368Z,17.27
2018-11-05T21:19:57.122Z,19.10
2018-11-05T21:22:30.829Z,18.53
2018-11-05T21:25:05.311Z,18.67
2018-11-05T21:27:38.143Z,19.17
2018-11-05T21:30:13.654Z,17.63
2018-11-05T21:32:46.319Z,17.93
2018-11-05T21:35:22.914Z,18.37
2018-11-05T21:37:55.613Z,16.67
2018-11-05T21:40:28.575Z,16.73
2018-11-05T21:43:06.237Z,16.50
2018-11-05T21:45:39.155Z,17.13
2018-11-05T21:48:11.702Z,17.23
2018-11-05T21:50:44.582Z,17.53
2018-11-05T21:53:17.859Z,16.27
2018-11-05T21:55:50.468Z,16.43
2018-11-05T21:58:23.134Z,16.40
2018-11-05T22:00:55.820Z,16.40
2018-11-05T22:03:28.351Z,17.17
2018-11-05T22:06:00.845Z,16.83
2018-11-05T22:08:33.364Z,16.90
2018-11-05T22:11:06.237Z,16.47
2018-11-05T22:13:38.782Z,16.70
2018-11-05T22:16:11.294Z,16.10
2018-11-05T22:18:43.785Z,15.60
2018-11-05T22:21:16.306Z,14.83
2018-11-05T22:23:49.168Z,15.93
2018-11-05T22:26:23.133Z,16.23
2018-11-05T22:28:55.610Z,14.70
2018-11-05T22:31:28.034Z,15.07
2018-11-05T22:34:00.471Z,14.50
2018-11-05T22:36:33.010Z,15.17
2018-11-05T22:39:07.187Z,15.80
2018-11-05T22:41:39.645Z,15.20
2018-11-05T22:44:12.096Z,14.73
2018-11-05T22:46:44.624Z,14.87
2018-11-05T22:49:17.073Z,13.93
2018-11-05T22:51:49.501Z,14.23
2018-11-05T22:54:21.964Z,14.20
2018-11-05T22:56:54.403Z,13.37
2018-11-05T22:59:26.864Z,13.33
2018-11-05T23:01:59.411Z,14.57
2018-11-05T23:04:31.876Z,14.57
2018-11-05T23:07:04.362Z,14.27
2018-11-05T23:09:36.829Z,13.73
2018-11-05T23:12:09.283Z,14.20
2018-11-05T23:14:41.706Z,13.67
2018-11-05T23:17:14.148Z,13.93
2018-11-05T23:19:46.590Z,13.93
2018-11-05T23:22:19.055Z,13.30
2018-11-05T23:24:51.454Z,13.77
2018-11-05T23:27:23.945Z,13.30
2018-11-05T23:29:56.402Z,14.53
2018-11-05T23:32:28.849Z,14.27
2018-11-05T23:35:01.304Z,12.90
2018-11-05T23:37:33.748Z,14.33
2018-11-05T23:40:07.347Z,13.83
2018-11-05T23:42:40.152Z,13.60
2018-11-05T23:45:13.854Z,13.00
2018-11-05T23:47:46.284Z,12.97
2018-11-05T23:50:18.730Z,13.20
2018-11-05T23:52:51.136Z,13.40
2018-11-05T23:55:23.575Z,13.93
2018-11-05T23:57:56.020Z,12.60
